Time;durP1;ratioP1;P1;durP2;ratioP2;P2;SDS_P1;SDS_P2;PMS_P1;PMS_P2;Temp;Humidity;BMP_temperature;BMP_pressure;BME280_temperature;BME280_humidity;BME280_pressure;Samples;Min_cycle;Max_cycle;Signal;HPM_P1;HPM_P2
2022/05/25 00:02:10;;;;;;;9.77;8.43;;;;;;;18.41;100.00;94332.44;5074199;28;20272;-62
2022/05/25 00:04:36;;;;;;;11.57;7.88;;;;;;;18.44;100.00;94339.03;5073968;28;20682;-60
2022/05/25 00:07:02;;;;;;;8.02;7.22;;;;;;;18.48;100.00;94336.88;5074231;28;20177;-63
2022/05/25 00:09:28;;;;;;;11.77;6.70;;;;;;;18.50;100.00;94335.72;5073890;28;20232;-63
2022/05/25 00:11:53;;;;;;;11.00;6.40;;;;;;;18.63;100.00;94340.16;5073292;28;20184;-60
2022/05/25 00:14:19;;;;;;;10.02;5.65;;;;;;;18.45;100.00;94327.72;5055877;28;20201;-61
2022/05/25 00:16:45;;;;;;;11.18;7.00;;;;;;;18.51;100.00;94331.34;5074207;28;20181;-62
2022/05/25 00:21:54;;;;;;;8.23;6.32;;;;;;;18.41;100.00;94322.13;5074413;28;20195;-60
2022/05/25 00:24:20;;;;;;;8.23;6.95;;;;;;;18.38;100.00;94332.00;5055459;28;20200;-61
2022/05/25 00:26:45;;;;;;;8.18;6.10;;;;;;;18.34;100.00;94326.41;5073973;28;20192;-60
2022/05/25 00:29:11;;;;;;;12.82;6.45;;;;;;;18.42;100.00;94328.88;5073428;28;20287;-61
2022/05/25 00:31:36;;;;;;;7.13;6.25;;;;;;;18.52;100.00;94333.75;5073154;28;20200;-61
2022/05/25 00:34:02;;;;;;;8.40;6.18;;;;;;;18.58;100.00;94337.34;5071018;28;20189;-60
2022/05/25 00:36:27;;;;;;;6.95;6.18;;;;;;;18.80;100.00;94346.63;5071456;28;20181;-60
2022/05/25 00:38:53;;;;;;;6.93;6.22;;;;;;;18.72;100.00;94341.63;5073254;28;20283;-61
2022/05/25 00:41:22;;;;;;;9.25;6.50;;;;;;;18.68;100.00;94332.69;5073401;28;20192;-62
2022/05/25 00:43:48;;;;;;;9.52;6.60;;;;;;;18.40;100.00;94325.69;5055229;28;20582;-63
2022/05/25 00:46:17;;;;;;;8.00;5.95;;;;;;;18.52;100.00;94330.38;5055329;28;20185;-60
2022/05/25 00:49:09;;;;;;;7.45;6.47;;;;;;;18.59;100.00;94332.00;5073156;28;20201;-63
2022/05/25 00:51:36;;;;;;;7.32;6.72;;;;;;;18.50;100.00;94324.59;5041348;28;20288;-62
2022/05/25 00:54:06;;;;;;;6.28;5.65;;;;;;;18.11;100.00;94325.81;5072771;28;20211;-63
2022/05/25 00:56:34;;;;;;;8.32;6.25;;;;;;;18.13;100.00;94334.16;5054747;28;20193;-63
2022/05/25 00:59:07;;;;;;;6.57;5.97;;;;;;;18.28;100.00;94341.81;5072824;28;20676;-62
2022/05/25 01:01:33;;;;;;;7.72;6.20;;;;;;;18.17;100.00;94335.38;5054860;28;20189;-61
2022/05/25 01:03:59;;;;;;;10.10;7.28;;;;;;;18.25;100.00;94342.97;5072465;28;20264;-62
2022/05/25 01:06:30;;;;;;;9.73;6.32;;;;;;;18.16;100.00;94336.34;5070991;28;20177;-64
2022/05/25 01:09:03;;;;;;;8.15;6.47;;;;;;;18.00;100.00;94335.78;5070793;28;20255;-62
2022/05/25 01:11:46;;;;;;;9.55;6.75;;;;;;;17.99;100.00;94342.72;5072820;28;20713;-63
2022/05/25 01:14:33;;;;;;;11.80;6.70;;;;;;;17.92;100.00;94346.19;5072541;28;20203;-61
2022/05/25 01:17:20;;;;;;;7.95;6.57;;;;;;;17.81;100.00;94349.25;5073012;28;20180;-62
2022/05/25 01:19:59;;;;;;;9.95;6.97;;;;;;;17.88;100.00;94355.25;5072489;28;20171;-58
2022/05/25 01:23:01;;;;;;;11.07;6.65;;;;;;;18.04;100.00;94357.63;5072410;28;20676;-59
2022/05/25 01:25:57;;;;;;;7.20;6.50;;;;;;;17.85;100.00;94356.41;5072314;28;20234;-61
2022/05/25 01:28:48;;;;;;;11.45;6.88;;;;;;;17.81;100.00;94346.66;5071748;28;20209;-63
2022/05/25 01:31:24;;;;;;;8.30;7.03;;;;;;;17.74;100.00;94354.28;5054464;28;20181;-62
2022/05/25 01:34:01;;;;;;;7.03;6.32;;;;;;;17.82;100.00;94351.63;5071639;28;20201;-61
2022/05/25 01:36:46;;;;;;;8.10;6.78;;;;;;;17.87;100.00;94361.38;5070499;28;20263;-58
2022/05/25 01:39:19;;;;;;;7.28;6.03;;;;;;;17.94;100.00;94362.22;5052599;28;20270;-65
2022/05/25 01:42:24;;;;;;;10.40;7.38;;;;;;;18.18;100.00;94367.84;5072521;28;20583;-62
2022/05/25 01:44:54;;;;;;;7.95;6.60;;;;;;;18.13;100.00;94367.59;4990572;28;20238;-59
2022/05/25 01:47:25;;;;;;;8.77;6.35;;;;;;;17.82;100.00;94355.97;5060244;28;20201;-62
2022/05/25 01:49:59;;;;;;;7.90;7.10;;;;;;;17.67;100.00;94361.16;5072073;28;20161;-61
2022/05/25 01:52:28;;;;;;;10.90;7.35;;;;;;;17.70;100.00;94362.53;5072014;28;20177;-62
2022/05/25 01:55:02;;;;;;;8.40;6.45;;;;;;;17.76;100.00;94364.41;5072270;28;20173;-64
2022/05/25 01:57:31;;;;;;;8.52;6.50;;;;;;;17.78;100.00;94365.81;5071689;28;20185;-59
2022/05/25 01:59:56;;;;;;;9.50;6.00;;;;;;;17.81;100.00;94374.97;5071882;28;20674;-64
2022/05/25 02:05:13;;;;;;;9.32;7.32;;;;;;;17.77;100.00;94381.44;5071433;28;20184;-64
2022/05/25 02:07:57;;;;;;;9.27;7.97;;;;;;;17.91;100.00;94386.56;5071201;28;20197;-61
2022/05/25 02:10:23;;;;;;;10.73;7.70;;;;;;;17.96;100.00;94384.22;5069694;28;20238;-63
2022/05/25 02:13:23;;;;;;;10.02;7.20;;;;;;;17.91;100.00;94386.56;5071095;28;20196;-63
2022/05/25 02:16:34;;;;;;;9.15;7.88;;;;;;;17.70;100.00;94380.53;5040952;28;20192;-62
2022/05/25 02:19:20;;;;;;;10.02;8.10;;;;;;;17.59;100.00;94377.44;5058384;28;20260;-62
2022/05/25 02:22:09;;;;;;;11.30;7.53;;;;;;;17.61;100.00;94387.56;5071799;28;20183;-63
2022/05/25 02:24:39;;;;;;;11.40;8.18;;;;;;;17.70;100.00;94389.06;5056238;28;20223;-64
2022/05/25 02:27:12;;;;;;;9.23;8.23;;;;;;;17.77;100.00;94394.28;5072277;28;20212;-62
2022/05/25 02:29:46;;;;;;;12.48;8.23;;;;;;;17.75;100.00;94394.47;5071443;28;20221;-65
2022/05/25 02:32:17;;;;;;;13.90;10.55;;;;;;;17.61;100.00;94396.06;5053623;28;20250;-63
2022/05/25 02:34:47;;;;;;;10.93;8.57;;;;;;;17.67;100.00;94402.28;5073116;28;20175;-62
2022/05/25 02:37:14;;;;;;;12.43;7.95;;;;;;;17.78;100.00;94406.16;5073927;28;20180;-61
2022/05/25 02:39:41;;;;;;;13.10;8.15;;;;;;;17.79;100.00;94407.78;5088303;22;20236;-62
2022/05/25 02:42:15;;;;;;;14.05;8.38;;;;;;;17.89;100.00;94424.53;5073905;28;20216;-61
2022/05/25 02:44:42;;;;;;;12.95;8.45;;;;;;;17.52;100.00;94412.56;5055630;28;20173;-60
2022/05/25 02:47:08;;;;;;;10.27;8.80;;;;;;;17.64;100.00;94420.63;5055713;28;20565;-61
2022/05/25 02:49:34;;;;;;;11.48;8.32;;;;;;;17.71;100.00;94426.66;5055296;28;20564;-62
2022/05/25 02:51:59;;;;;;;12.57;9.45;;;;;;;17.44;100.00;94417.78;5070630;28;20193;-62
2022/05/25 02:54:24;;;;;;;9.90;8.90;;;;;;;17.36;100.00;94422.19;5053870;28;20195;-64
2022/05/25 02:56:50;;;;;;;11.63;9.43;;;;;;;17.47;100.00;94425.13;5055184;28;20178;-61
2022/05/25 02:59:15;;;;;;;13.82;9.48;;;;;;;17.39;100.00;94425.19;5054856;28;20687;-62
2022/05/25 03:01:41;;;;;;;11.45;10.25;;;;;;;17.26;100.00;94425.03;5055194;28;20177;-60
2022/05/25 03:04:06;;;;;;;13.48;9.85;;;;;;;17.15;100.00;94414.41;5055377;28;20270;-60
2022/05/25 03:06:32;;;;;;;12.93;8.98;;;;;;;17.39;100.00;94425.19;5053426;28;20276;-59
2022/05/25 03:08:57;;;;;;;14.23;10.07;;;;;;;17.35;100.00;94421.38;5053109;28;20631;-59
2022/05/25 03:11:24;;;;;;;10.57;9.50;;;;;;;17.40;100.00;94426.81;5054777;28;20182;-59
2022/05/25 03:13:49;;;;;;;10.48;9.38;;;;;;;17.32;100.00;94437.19;5055171;28;20288;-60
2022/05/25 03:16:18;;;;;;;14.45;11.15;;;;;;;17.23;100.00;94437.44;5054820;28;20292;-62
2022/05/25 03:18:44;;;;;;;16.33;9.98;;;;;;;17.43;100.00;94434.16;5052795;28;20228;-61
2022/05/25 03:21:10;;;;;;;12.95;9.93;;;;;;;17.48;100.00;94441.34;5054077;28;20178;-60
2022/05/25 03:23:36;;;;;;;13.43;9.85;;;;;;;17.62;100.00;94448.28;5055012;28;20645;-63
2022/05/25 03:26:01;;;;;;;15.20;10.48;;;;;;;17.59;100.00;94451.22;5054532;28;20180;-61
2022/05/25 03:28:26;;;;;;;17.17;10.45;;;;;;;17.40;100.00;94449.94;5054910;28;20706;-63
2022/05/25 03:30:52;;;;;;;10.88;9.65;;;;;;;17.45;100.00;94452.00;5054593;28;20174;-59
2022/05/25 03:33:17;;;;;;;13.68;12.15;;;;;;;17.52;100.00;94447.75;5054805;28;20243;-61
2022/05/25 03:35:43;;;;;;;13.80;11.05;;;;;;;17.48;100.00;94456.75;5053164;28;20181;-59
2022/05/25 03:38:09;;;;;;;18.60;15.50;;;;;;;17.44;100.00;94455.53;5054652;28;20693;-63
2022/05/25 03:40:36;;;;;;;15.38;11.48;;;;;;;17.55;100.00;94471.31;5053104;28;20184;-61
2022/05/25 03:43:01;;;;;;;16.02;11.63;;;;;;;17.36;100.00;94463.31;5054461;28;20197;-61
2022/05/25 03:45:27;;;;;;;12.15;10.52;;;;;;;17.49;100.00;94471.25;5054134;28;20713;-59
2022/05/25 03:47:53;;;;;;;16.17;10.40;;;;;;;17.50;100.00;94475.41;5052683;28;20244;-61
2022/05/25 03:50:19;;;;;;;11.82;9.73;;;;;;;17.27;100.00;94465.16;5069093;28;20223;-63
2022/05/25 03:52:46;;;;;;;13.40;9.35;;;;;;;17.52;100.00;94483.75;5052100;28;20878;-63
2022/05/25 03:55:11;;;;;;;16.00;9.10;;;;;;;17.66;100.00;94489.88;5068091;28;20596;-63
2022/05/25 03:57:37;;;;;;;15.40;9.13;;;;;;;17.51;100.00;94482.16;5053997;28;20201;-65
2022/05/25 04:00:11;;;;;;;10.52;8.75;;;;;;;17.58;100.00;94491.56;5054038;28;20201;-62
2022/05/25 04:02:36;;;;;;;13.73;8.70;;;;;;;17.50;100.00;94493.41;5054169;28;20201;-63
2022/05/25 04:05:08;;;;;;;14.23;9.20;;;;;;;17.59;100.00;94507.78;5052690;28;20182;-62
2022/05/25 04:07:42;;;;;;;11.80;8.25;;;;;;;17.42;100.00;94499.41;5054117;28;20182;-59
2022/05/25 04:10:16;;;;;;;9.65;7.82;;;;;;;17.37;100.00;94503.47;5069244;28;20220;-64
2022/05/25 04:12:42;;;;;;;10.25;7.40;;;;;;;17.43;100.00;94488.13;5054501;28;20205;-62
2022/05/25 04:15:11;;;;;;;11.52;8.48;;;;;;;17.97;100.00;94498.22;5069027;28;20181;-60
2022/05/25 04:17:36;;;;;;;11.98;9.52;;;;;;;17.85;100.00;94515.88;5053469;28;20197;-61
2022/05/25 04:20:04;;;;;;;9.07;8.18;;;;;;;17.73;100.00;94509.56;5053480;28;20180;-61
2022/05/25 04:22:32;;;;;;;11.55;8.15;;;;;;;17.88;100.00;94520.66;5053370;28;20231;-62
2022/05/25 04:24:59;;;;;;;10.55;8.68;;;;;;;17.70;100.00;94491.09;5053556;28;20186;-60
2022/05/25 04:27:25;;;;;;;12.68;9.00;;;;;;;17.61;100.00;94501.47;5053594;28;20722;-60
2022/05/25 04:29:50;;;;;;;9.70;8.63;;;;;;;17.47;100.00;94484.22;5053054;28;20297;-60
2022/05/25 04:32:16;;;;;;;10.10;8.13;;;;;;;17.60;100.00;94492.19;5051566;28;20182;-59
2022/05/25 04:34:42;;;;;;;9.70;8.70;;;;;;;17.66;100.00;94511.25;5052959;28;20695;-61
2022/05/25 04:39:51;;;;;;;10.18;8.82;;;;;;;17.39;100.00;94494.59;5054048;28;20227;-59
2022/05/25 04:42:17;;;;;;;13.93;10.52;;;;;;;17.13;100.00;94493.41;5053142;28;20657;-62
2022/05/25 04:44:42;;;;;;;11.43;9.13;;;;;;;17.13;100.00;94498.53;5053025;28;20185;-63
2022/05/25 04:47:08;;;;;;;14.20;10.25;;;;;;;17.18;100.00;94501.38;5051730;28;20228;-63
2022/05/25 04:49:35;;;;;;;14.07;9.57;;;;;;;17.33;100.00;94494.50;5052808;28;20193;-61
2022/05/25 04:52:01;;;;;;;13.07;10.93;;;;;;;17.49;100.00;94504.69;5052762;28;20595;-61
2022/05/25 04:54:33;;;;;;;10.95;9.07;;;;;;;18.02;100.00;94496.69;5052510;28;20194;-61
2022/05/25 04:59:44;;;;;;;11.95;10.50;;;;;;;18.63;100.00;94516.06;5050452;28;20236;-63
2022/05/25 05:02:09;;;;;;;14.05;10.45;;;;;;;18.27;100.00;94522.94;5051912;28;20534;-63
2022/05/25 05:04:37;;;;;;;17.17;12.95;;;;;;;17.80;100.00;94505.31;5052522;28;20204;-62
2022/05/25 05:07:03;;;;;;;19.80;12.70;;;;;;;17.44;100.00;94506.94;5051206;28;20212;-60
2022/05/25 05:09:36;;;;;;;15.02;12.20;;;;;;;17.61;100.00;94505.84;5052242;28;20201;-60
2022/05/25 05:12:02;;;;;;;15.27;12.50;;;;;;;17.84;100.00;94511.69;5051261;28;20216;-64
2022/05/25 05:14:28;;;;;;;17.10;10.55;;;;;;;17.76;100.00;94509.22;5052213;28;20201;-59
2022/05/25 05:16:58;;;;;;;16.30;11.23;;;;;;;17.89;100.00;94509.41;5067855;28;20619;-60
2022/05/25 05:19:25;;;;;;;13.15;10.65;;;;;;;17.98;100.00;94526.31;5052410;28;20201;-63
2022/05/25 05:21:51;;;;;;;11.63;9.40;;;;;;;17.98;100.00;94521.19;5052253;28;20182;-63
2022/05/25 05:24:17;;;;;;;12.75;10.20;;;;;;;17.90;100.00;94523.03;5074807;22;20729;-64
2022/05/25 05:26:42;;;;;;;13.00;10.65;;;;;;;17.93;100.00;94517.56;5071988;28;20218;-64
2022/05/25 05:29:08;;;;;;;12.45;10.63;;;;;;;18.07;100.00;94539.91;5072435;28;20233;-59
2022/05/25 05:31:34;;;;;;;14.27;10.02;;;;;;;17.93;100.00;94527.84;5072360;28;20180;-61
2022/05/25 05:33:59;;;;;;;13.85;10.77;;;;;;;17.75;100.00;94514.53;5072550;28;20685;-63
2022/05/25 05:36:28;;;;;;;14.40;9.82;;;;;;;17.69;100.00;94516.03;5071795;28;20789;-60
2022/05/25 05:39:05;;;;;;;13.27;11.02;;;;;;;17.70;100.00;94520.19;5072418;28;20385;-61
2022/05/25 05:41:37;;;;;;;12.25;10.00;;;;;;;17.70;100.00;94527.91;5072208;28;20252;-60
2022/05/25 05:44:05;;;;;;;13.77;10.63;;;;;;;17.85;100.00;94536.44;5071985;28;20697;-58
2022/05/25 05:46:31;;;;;;;13.25;10.98;;;;;;;17.81;100.00;94531.81;5053617;28;20583;-60
2022/05/25 05:48:56;;;;;;;18.63;11.65;;;;;;;18.10;100.00;94553.19;5071480;28;20201;-59
2022/05/25 05:51:22;;;;;;;12.30;10.90;;;;;;;18.23;100.00;94550.81;5069816;28;20181;-60
2022/05/25 05:53:49;;;;;;;12.85;10.13;;;;;;;18.24;100.00;94549.81;5072148;28;20213;-64
2022/05/25 05:56:15;;;;;;;14.32;10.40;;;;;;;18.07;100.00;94551.00;5053725;28;20184;-60
2022/05/25 05:58:41;;;;;;;15.65;11.15;;;;;;;18.26;100.00;94557.38;5053752;28;20216;-61
2022/05/25 06:01:07;;;;;;;14.50;10.75;;;;;;;18.36;100.00;94561.25;5071720;28;20169;-60
2022/05/25 06:03:32;;;;;;;15.82;9.88;;;;;;;18.40;100.00;94551.44;5072310;28;20205;-63
2022/05/25 06:05:57;;;;;;;16.25;10.35;;;;;;;18.22;100.00;94549.19;5071668;28;20187;-60
2022/05/25 06:08:23;;;;;;;13.13;10.95;;;;;;;17.98;100.00;94548.66;5072019;28;20201;-60
2022/05/25 06:10:49;;;;;;;13.75;11.23;;;;;;;17.94;100.00;94548.22;5075341;28;20637;-60
2022/05/25 06:13:15;;;;;;;14.43;11.18;;;;;;;18.03;100.00;94548.94;5058025;28;20254;-65
2022/05/25 06:21:16;;;;;;;16.33;11.07;;;;;;;18.49;100.00;94565.81;5075772;28;20637;-63
2022/05/25 06:23:42;;;;;;;17.45;11.48;;;;;;;18.77;100.00;94569.31;5075213;28;20578;-61
2022/05/25 06:26:07;;;;;;;15.98;13.02;;;;;;;18.88;100.00;94571.41;5057273;28;20186;-61
2022/05/25 06:28:33;;;;;;;19.33;13.05;;;;;;;18.74;100.00;94553.44;5075155;28;20736;-63
2022/05/25 06:30:59;;;;;;;21.38;13.23;;;;;;;18.41;100.00;94547.84;5075322;28;20177;-60
2022/05/25 06:33:25;;;;;;;17.23;12.40;;;;;;;18.55;100.00;94556.56;5075476;28;20219;-64
2022/05/25 06:35:50;;;;;;;17.02;13.07;;;;;;;18.70;100.00;94562.50;5075277;28;20169;-61
2022/05/25 06:38:16;;;;;;;16.48;12.27;;;;;;;18.90;100.00;94584.13;5073481;28;20720;-63
2022/05/25 06:40:41;;;;;;;17.58;12.27;;;;;;;19.09;100.00;94578.34;5074860;28;20176;-63
2022/05/25 06:43:07;;;;;;;19.77;13.15;;;;;;;19.07;100.00;94572.59;5075531;28;20288;-63
2022/05/25 06:45:32;;;;;;;16.90;11.77;;;;;;;19.07;100.00;94564.84;5075414;28;20227;-61
2022/05/25 06:47:58;;;;;;;18.55;13.35;;;;;;;19.07;100.00;94562.28;5075354;28;20686;-61
2022/05/25 06:50:25;;;;;;;20.77;13.02;;;;;;;18.98;100.00;94569.34;5074963;28;20177;-61
2022/05/25 06:52:51;;;;;;;18.77;12.10;;;;;;;19.27;100.00;94584.69;5074990;28;20232;-58
2022/05/25 06:55:17;;;;;;;16.13;13.02;;;;;;;19.23;100.00;94591.19;5082184;22;20168;-62
2022/05/25 06:57:42;;;;;;;14.77;13.15;;;;;;;19.12;100.00;94583.16;5074938;28;20251;-60
2022/05/25 07:00:08;;;;;;;20.23;13.43;;;;;;;19.05;100.00;94569.38;5074600;28;20189;-63
2022/05/25 07:02:34;;;;;;;15.95;12.68;;;;;;;19.15;100.00;94562.16;5073527;28;20180;-62
2022/05/25 07:04:59;;;;;;;16.10;12.25;;;;;;;19.18;100.00;94566.97;5073674;28;20177;-60
2022/05/25 07:07:25;;;;;;;13.68;11.07;;;;;;;19.36;100.00;94548.50;5074761;28;20749;-58
2022/05/25 07:09:51;;;;;;;17.75;11.52;;;;;;;19.71;100.00;94612.09;5074601;28;20172;-63
2022/05/25 07:12:16;;;;;;;17.30;12.73;;;;;;;19.81;100.00;94610.78;5074570;28;20207;-63
2022/05/25 07:14:42;;;;;;;17.50;11.80;;;;;;;19.81;100.00;94566.13;5092284;23;20212;-61
2022/05/25 07:17:08;;;;;;;13.27;10.13;;;;;;;20.10;100.00;94564.13;5093537;28;20571;-60
2022/05/25 07:19:33;;;;;;;14.02;9.60;;;;;;;20.71;100.00;94580.53;5094704;28;20534;-63
2022/05/25 07:21:59;;;;;;;15.57;11.02;;;;;;;20.99;100.00;94642.47;5094352;28;20176;-60
2022/05/25 07:24:24;;;;;;;13.77;9.63;;;;;;;21.19;100.00;94604.56;5094797;28;20196;-60
2022/05/25 07:26:50;;;;;;;14.43;11.13;;;;;;;21.52;100.00;94643.44;5094635;28;20264;-61
2022/05/25 07:29:15;;;;;;;12.93;9.30;;;;;;;21.72;100.00;94614.00;5094274;28;20192;-60
2022/05/25 07:31:54;;;;;;;13.15;10.05;;;;;;;22.04;100.00;94646.09;5091049;28;20180;-60
2022/05/25 07:34:25;;;;;;;15.25;10.10;;;;;;;22.07;100.00;94660.44;5094529;28;20291;-63
2022/05/25 07:37:02;;;;;;;12.43;9.27;;;;;;;22.21;100.00;94662.84;5092888;28;20205;-63
2022/05/25 07:39:43;;;;;;;13.13;9.75;;;;;;;22.51;100.00;94668.38;5094390;28;20577;-62
2022/05/25 07:42:12;;;;;;;16.88;10.32;;;;;;;22.43;100.00;94699.66;5094466;28;20181;-64
2022/05/25 07:44:45;;;;;;;17.02;11.63;;;;;;;22.45;96.91;94711.44;5093213;28;20200;-63
2022/05/25 07:47:12;;;;;;;11.98;10.43;;;;;;;22.18;100.00;94610.63;5094325;28;20199;-60
2022/05/25 07:49:38;;;;;;;17.65;10.82;;;;;;;22.36;99.46;94678.16;5094347;28;20193;-62
2022/05/25 07:52:04;;;;;;;17.02;10.70;;;;;;;22.27;99.98;94648.28;5093025;28;20173;-61
2022/05/25 07:54:30;;;;;;;18.30;11.38;;;;;;;22.17;100.00;94633.16;5094165;28;20254;-59
2022/05/25 07:56:56;;;;;;;16.10;11.07;;;;;;;22.05;100.00;94623.59;5093844;28;20173;-61
2022/05/25 07:59:21;;;;;;;20.00;9.50;;;;;;;22.10;100.00;94583.13;5093368;28;20257;-61
2022/05/25 08:07:24;;;;;;;15.98;10.18;;;;;;;22.74;97.69;94691.28;5094391;28;20604;-61
2022/05/25 08:09:54;;;;;;;15.27;10.23;;;;;;;22.75;100.00;94602.94;5093777;28;20176;-62
2022/05/25 08:12:20;;;;;;;11.50;8.75;;;;;;;22.81;100.00;94629.81;5092334;28;20208;-62
2022/05/25 08:14:46;;;;;;;12.85;8.98;;;;;;;22.95;97.60;94683.22;5093477;28;20214;-62
2022/05/25 08:17:11;;;;;;;16.02;10.55;;;;;;;22.80;94.80;94701.66;5093543;28;20180;-62
2022/05/25 08:19:38;;;;;;;17.73;10.65;;;;;;;22.74;100.00;94603.94;5093336;28;20203;-61
2022/05/25 08:22:04;;;;;;;16.48;10.73;;;;;;;22.79;95.16;94699.22;5093380;28;20267;-61
2022/05/25 08:24:30;;;;;;;23.13;12.43;;;;;;;22.82;95.51;94681.50;5093579;28;20287;-61
2022/05/25 08:26:55;;;;;;;12.80;10.05;;;;;;;22.76;99.84;94590.78;5093192;28;20201;-62
2022/05/25 08:29:24;;;;;;;13.48;9.45;;;;;;;22.88;97.97;94628.81;5093054;28;20618;-62
2022/05/25 08:31:55;;;;;;;23.27;14.43;;;;;;;23.18;97.49;94645.44;5092201;28;20169;-62
2022/05/25 08:34:22;;;;;;;17.40;11.88;;;;;;;23.19;94.42;94695.53;5090358;28;20690;-62
2022/05/25 08:36:48;;;;;;;16.45;10.90;;;;;;;23.15;92.74;94717.69;5090099;28;20274;-63
2022/05/25 08:39:14;;;;;;;13.50;9.98;;;;;;;23.12;91.68;94728.47;5092599;28;20398;-62
2022/05/25 08:41:42;;;;;;;16.45;10.60;;;;;;;23.18;96.24;94653.22;5092691;28;20203;-62
2022/05/25 08:44:10;;;;;;;14.98;10.38;;;;;;;23.40;98.61;94625.19;5093337;28;20200;-60
2022/05/25 08:46:37;;;;;;;14.60;9.82;;;;;;;23.56;98.52;94616.09;5092857;28;20176;-62
2022/05/25 08:49:10;;;;;;;19.00;11.45;;;;;;;23.71;95.04;94684.13;5093288;28;20204;-62
2022/05/25 08:51:49;;;;;;;17.70;10.40;;;;;;;23.81;93.19;94703.44;5091573;28;20157;-62
2022/05/25 08:54:16;;;;;;;24.13;12.43;;;;;;;24.15;94.91;94678.84;5091791;28;20298;-62
2022/05/25 08:56:49;;;;;;;21.60;13.02;;;;;;;24.16;91.57;94740.19;5092716;28;20186;-62
2022/05/25 08:59:24;;;;;;;13.65;11.00;;;;;;;23.94;90.74;94737.09;5092883;28;20213;-61
2022/05/25 09:02:13;;;;;;;21.10;12.35;;;;;;;24.00;92.08;94714.69;5091288;28;20207;-63
2022/05/25 09:04:44;;;;;;;16.60;11.40;;;;;;;24.10;93.43;94689.06;5092554;28;20192;-62
2022/05/25 09:07:28;;;;;;;15.50;11.43;;;;;;;24.25;90.37;94745.91;5092575;28;20185;-62
2022/05/25 09:09:53;;;;;;;15.68;11.25;;;;;;;24.31;89.31;94740.69;5092664;28;20196;-62
2022/05/25 09:12:25;;;;;;;16.98;10.70;;;;;;;24.39;87.76;94771.59;5088794;22;20275;-61
2022/05/25 09:15:16;;;;;;;19.50;10.63;;;;;;;24.60;90.05;94715.84;5072415;28;20169;-61
2022/05/25 09:17:48;;;;;;;20.48;11.32;;;;;;;24.83;91.08;94696.03;5072566;28;20209;-61
2022/05/25 09:20:22;;;;;;;19.05;10.38;;;;;;;24.95;89.09;94730.72;5072325;28;20177;-61
2022/05/25 09:22:57;;;;;;;22.13;13.43;;;;;;;25.21;88.15;94747.09;5053745;28;20270;-59
2022/05/25 09:25:24;;;;;;;22.80;11.80;;;;;;;25.39;87.48;94752.28;5070202;28;20173;-61
2022/05/25 09:28:03;;;;;;;15.38;10.43;;;;;;;25.43;85.61;94785.50;5072405;28;20200;-59
2022/05/25 09:30:32;;;;;;;14.90;9.93;;;;;;;25.51;85.89;94776.59;5072002;28;20171;-61
2022/05/25 09:33:04;;;;;;;18.75;9.68;;;;;;;25.64;84.15;94807.69;5071695;28;20342;-61
2022/05/25 09:35:34;;;;;;;20.17;9.40;;;;;;;25.87;83.63;94807.00;5071882;28;20240;-61
2022/05/25 09:38:02;;;;;;;14.80;9.40;;;;;;;25.79;82.10;94828.97;5072114;28;20220;-64
2022/05/25 09:40:34;;;;;;;17.52;10.02;;;;;;;26.05;83.16;94799.16;5053845;28;20180;-63
2022/05/25 09:43:02;;;;;;;13.82;9.15;;;;;;;26.30;81.92;94808.44;5053818;28;20664;-63
2022/05/25 09:45:48;;;;;;;12.38;9.50;;;;;;;26.22;80.01;94751.41;5071987;28;20254;-64
2022/05/25 09:48:18;;;;;;;11.18;8.48;;;;;;;26.19;75.94;94798.00;5071863;28;20296;-63
2022/05/25 09:50:49;;;;;;;11.20;7.88;;;;;;;25.86;75.43;94798.41;5072045;28;20158;-62
2022/05/25 09:53:17;;;;;;;20.65;8.27;;;;;;;26.20;72.71;94807.41;5071629;28;20205;-60
2022/05/25 09:55:49;;;;;;;14.18;8.45;;;;;;;26.46;71.22;94823.47;5071566;28;20177;-60
2022/05/25 09:58:32;;;;;;;14.20;8.85;;;;;;;26.63;70.80;94818.41;5053510;28;20216;-60
2022/05/25 10:01:22;;;;;;;15.55;9.45;;;;;;;26.67;71.04;94787.44;5071617;28;20177;-64
2022/05/25 10:03:48;;;;;;;14.73;9.07;;;;;;;26.83;71.82;94758.88;5071740;28;20224;-61
2022/05/25 10:06:34;;;;;;;15.13;9.77;;;;;;;26.95;70.76;94771.94;5071498;28;20262;-64
2022/05/25 10:09:08;;;;;;;12.02;10.13;;;;;;;27.20;70.36;94770.69;5052785;28;20689;-61
2022/05/25 10:11:43;;;;;;;15.35;9.38;;;;;;;27.50;70.32;94770.53;5069037;28;20199;-60
2022/05/25 10:14:27;;;;;;;13.30;9.52;;;;;;;27.72;68.71;94802.06;5069201;28;20223;-63
2022/05/25 10:16:54;;;;;;;14.20;9.43;;;;;;;27.76;65.74;94840.56;5053610;28;20189;-61
2022/05/25 10:19:21;;;;;;;15.00;9.10;;;;;;;27.81;66.69;94814.56;5071290;28;20205;-61
2022/05/25 10:21:52;;;;;;;15.77;8.35;;;;;;;27.83;64.23;94845.69;5071662;28;20173;-60
2022/05/25 10:24:48;;;;;;;14.60;9.27;;;;;;;27.84;64.87;94814.06;5071141;28;20201;-61
2022/05/25 10:27:32;;;;;;;13.43;8.88;;;;;;;27.73;63.75;94829.78;5049425;28;20235;-63
2022/05/25 10:38:24;;;;;;;15.32;8.20;;;;;;;28.03;60.62;94804.28;5068919;28;20758;-64
2022/05/25 10:40:49;;;;;;;13.00;9.18;;;;;;;28.06;59.90;94817.66;5053012;28;20200;-65
2022/05/25 10:43:17;;;;;;;16.48;8.82;;;;;;;28.02;58.50;94827.00;5070846;28;20645;-60
2022/05/25 10:45:51;;;;;;;13.15;8.48;;;;;;;28.29;58.90;94797.66;5070905;28;20225;-63
2022/05/25 10:48:18;;;;;;;15.10;7.63;;;;;;;28.67;57.05;94843.09;5071194;28;20196;-63
2022/05/25 10:50:53;;;;;;;12.40;8.35;;;;;;;28.82;56.36;94835.50;5053040;28;20650;-61
2022/05/25 10:57:03;;;;;;;13.45;8.68;;;;;;;29.31;55.10;94844.38;5059079;28;20565;-63
2022/05/25 10:59:57;;;;;;;12.80;7.97;;;;;;;29.32;53.31;94872.19;5018991;28;20724;-60
2022/05/25 11:03:00;;;;;;;16.92;8.43;;;;;;;29.71;55.92;94805.63;5038345;28;20196;-63
2022/05/25 11:05:45;;;;;;;12.32;7.60;;;;;;;29.95;54.56;94824.53;5074598;28;20169;-60
2022/05/25 11:08:25;;;;;;;11.85;8.02;;;;;;;29.66;52.70;94854.56;5073063;28;20361;-60
2022/05/25 11:10:57;;;;;;;16.60;9.25;;;;;;;29.98;53.90;94826.66;5073794;28;20169;-60
2022/05/25 11:13:41;;;;;;;13.60;8.27;;;;;;;30.38;52.65;94845.47;5074887;28;20211;-63
2022/05/25 11:16:09;;;;;;;15.50;7.90;;;;;;;30.56;51.72;94857.50;5074470;28;20669;-60
2022/05/25 11:18:50;;;;;;;13.57;7.68;;;;;;;30.73;50.55;94878.38;5074250;28;20726;-59
2022/05/25 11:21:36;;;;;;;14.70;8.25;;;;;;;30.96;51.85;94823.72;5074730;28;20196;-62
2022/05/25 11:24:01;;;;;;;16.77;8.65;;;;;;;31.05;51.50;94822.19;5074090;28;20709;-63
2022/05/25 11:27:03;;;;;;;14.45;7.72;;;;;;;31.31;49.63;94875.75;5074333;28;20196;-60
2022/05/25 11:29:50;;;;;;;16.30;8.80;;;;;;;31.38;49.92;94850.84;5074157;28;20268;-59
2022/05/25 11:32:28;;;;;;;18.90;7.88;;;;;;;31.67;47.31;94910.97;5074183;28;20188;-60
2022/05/25 11:35:11;;;;;;;14.32;7.43;;;;;;;31.77;48.56;94863.69;5072972;28;20169;-60
2022/05/25 11:38:18;;;;;;;15.73;7.40;;;;;;;31.81;45.19;94956.81;5071683;28;20213;-60
2022/05/25 11:41:02;;;;;;;20.40;7.80;;;;;;;31.74;45.85;94908.88;5074088;28;20527;-60
2022/05/25 11:43:27;;;;;;;17.65;7.47;;;;;;;31.75;46.95;94863.94;5073985;28;20262;-59
2022/05/25 11:46:02;;;;;;;14.57;8.00;;;;;;;31.73;46.35;94881.81;5073943;28;20173;-60
2022/05/25 11:48:38;;;;;;;12.02;7.20;;;;;;;31.68;46.30;94875.72;5073989;28;20192;-59
2022/05/25 11:51:13;;;;;;;13.68;6.82;;;;;;;31.34;45.58;94886.53;5055833;28;20271;-59
2022/05/25 11:54:07;;;;;;;15.75;7.35;;;;;;;31.63;45.62;94873.06;5073982;28;20576;-60
2022/05/25 11:56:50;;;;;;;13.30;7.05;;;;;;;31.95;46.36;94850.91;5012983;28;20201;-63
2022/05/25 11:59:33;;;;;;;18.73;6.78;;;;;;;31.94;42.22;94945.88;5073644;28;20228;-61
2022/05/25 12:02:10;;;;;;;14.65;6.65;;;;;;;31.78;37.41;94941.53;5073894;28;20547;-61
2022/05/25 12:04:56;;;;;;;16.38;5.65;;;;;;;31.83;39.14;94863.44;5053313;28;20603;-62
2022/05/25 12:07:59;;;;;;;18.77;6.25;;;;;;;32.28;37.82;94885.75;5030068;28;20207;-60
2022/05/25 12:10:37;;;;;;;11.10;5.57;;;;;;;32.23;36.13;94889.97;5073776;28;20181;-62